sensor_id;sensor_type;location;lat;lon;timestamp;P1;durP1;ratioP1;P2;durP2;ratioP2
359;SDS011;168;48.872;9.226;2023-04-03T00:02:24;4.93;;;3.93;;
359;SDS011;168;48.872;9.226;2023-04-03T00:04:51;4.17;;;3.50;;
359;SDS011;168;48.872;9.226;2023-04-03T00:07:20;4.10;;;3.80;;
359;SDS011;168;48.872;9.226;2023-04-03T00:09:48;4.10;;;3.20;;
359;SDS011;168;48.872;9.226;2023-04-03T00:12:15;3.60;;;3.30;;
359;SDS011;168;48.872;9.226;2023-04-03T00:14:42;4.83;;;3.53;;
359;SDS011;168;48.872;9.226;2023-04-03T00:17:10;4.23;;;3.80;;
359;SDS011;168;48.872;9.226;2023-04-03T00:19:37;3.80;;;3.50;;
359;SDS011;168;48.872;9.226;2023-04-03T00:22:05;3.87;;;3.57;;
359;SDS011;168;48.872;9.226;2023-04-03T00:24:35;5.13;;;4.20;;
359;SDS011;168;48.872;9.226;2023-04-03T00:27:02;4.37;;;3.97;;
359;SDS011;168;48.872;9.226;2023-04-03T00:29:29;4.63;;;4.23;;
359;SDS011;168;48.872;9.226;2023-04-03T00:31:57;4.93;;;3.37;;
359;SDS011;168;48.872;9.226;2023-04-03T00:34:24;4.33;;;3.23;;
359;SDS011;168;48.872;9.226;2023-04-03T00:36:52;4.03;;;3.63;;
359;SDS011;168;48.872;9.226;2023-04-03T00:39:19;3.57;;;3.27;;
359;SDS011;168;48.872;9.226;2023-04-03T00:41:49;4.00;;;3.70;;
359;SDS011;168;48.872;9.226;2023-04-03T00:44:20;4.13;;;3.83;;
359;SDS011;168;48.872;9.226;2023-04-03T00:46:48;5.37;;;3.37;;
359;SDS011;168;48.872;9.226;2023-04-03T00:49:16;4.73;;;3.70;;
359;SDS011;168;48.872;9.226;2023-04-03T00:51:43;4.17;;;3.87;;
359;SDS011;168;48.872;9.226;2023-04-03T00:54:11;3.80;;;3.40;;
359;SDS011;168;48.872;9.226;2023-04-03T00:56:39;4.20;;;3.90;;
359;SDS011;168;48.872;9.226;2023-04-03T00:59:10;4.20;;;3.80;;
359;SDS011;168;48.872;9.226;2023-04-03T01:01:40;3.43;;;3.13;;
359;SDS011;168;48.872;9.226;2023-04-03T01:04:24;4.37;;;4.07;;
359;SDS011;168;48.872;9.226;2023-04-03T01:06:54;3.80;;;3.50;;
359;SDS011;168;48.872;9.226;2023-04-03T01:09:23;3.70;;;3.50;;
359;SDS011;168;48.872;9.226;2023-04-03T01:11:51;3.83;;;3.53;;
359;SDS011;168;48.872;9.226;2023-04-03T01:14:19;6.00;;;3.93;;
359;SDS011;168;48.872;9.226;2023-04-03T01:16:51;5.63;;;4.10;;
359;SDS011;168;48.872;9.226;2023-04-03T01:19:19;4.23;;;3.87;;
359;SDS011;168;48.872;9.226;2023-04-03T01:22:02;4.43;;;4.10;;
359;SDS011;168;48.872;9.226;2023-04-03T01:24:40;3.87;;;3.20;;
359;SDS011;168;48.872;9.226;2023-04-03T01:27:07;4.00;;;3.60;;
359;SDS011;168;48.872;9.226;2023-04-03T01:29:39;4.03;;;3.73;;
359;SDS011;168;48.872;9.226;2023-04-03T01:32:10;4.93;;;4.53;;
359;SDS011;168;48.872;9.226;2023-04-03T01:34:37;3.83;;;3.53;;
359;SDS011;168;48.872;9.226;2023-04-03T01:37:05;3.93;;;3.63;;
359;SDS011;168;48.872;9.226;2023-04-03T01:39:32;4.07;;;3.70;;
359;SDS011;168;48.872;9.226;2023-04-03T01:42:00;4.27;;;3.90;;
359;SDS011;168;48.872;9.226;2023-04-03T01:44:29;4.67;;;4.13;;
359;SDS011;168;48.872;9.226;2023-04-03T01:46:56;4.13;;;3.83;;
359;SDS011;168;48.872;9.226;2023-04-03T01:49:25;4.23;;;3.83;;
359;SDS011;168;48.872;9.226;2023-04-03T01:51:52;4.07;;;3.77;;
359;SDS011;168;48.872;9.226;2023-04-03T01:54:20;4.20;;;3.80;;
359;SDS011;168;48.872;9.226;2023-04-03T01:56:47;3.80;;;3.50;;
359;SDS011;168;48.872;9.226;2023-04-03T01:59:15;4.80;;;4.40;;
359;SDS011;168;48.872;9.226;2023-04-03T02:01:43;4.10;;;3.80;;
359;SDS011;168;48.872;9.226;2023-04-03T02:04:11;4.37;;;4.00;;
359;SDS011;168;48.872;9.226;2023-04-03T02:06:40;4.30;;;3.97;;
359;SDS011;168;48.872;9.226;2023-04-03T02:09:08;4.10;;;3.80;;
359;SDS011;168;48.872;9.226;2023-04-03T02:11:36;4.93;;;4.03;;
359;SDS011;168;48.872;9.226;2023-04-03T02:14:03;4.30;;;3.97;;
359;SDS011;168;48.872;9.226;2023-04-03T02:16:30;4.60;;;4.20;;
359;SDS011;168;48.872;9.226;2023-04-03T02:18:58;4.13;;;3.83;;
359;SDS011;168;48.872;9.226;2023-04-03T02:21:25;4.23;;;3.90;;
359;SDS011;168;48.872;9.226;2023-04-03T02:23:54;3.53;;;3.33;;
359;SDS011;168;48.872;9.226;2023-04-03T02:26:22;4.60;;;3.90;;
359;SDS011;168;48.872;9.226;2023-04-03T02:28:49;5.57;;;3.83;;
359;SDS011;168;48.872;9.226;2023-04-03T02:31:17;3.93;;;3.63;;
359;SDS011;168;48.872;9.226;2023-04-03T02:33:44;3.73;;;3.30;;
359;SDS011;168;48.872;9.226;2023-04-03T02:36:12;3.97;;;3.67;;
359;SDS011;168;48.872;9.226;2023-04-03T02:38:40;3.23;;;2.87;;
359;SDS011;168;48.872;9.226;2023-04-03T02:41:09;3.63;;;3.33;;
359;SDS011;168;48.872;9.226;2023-04-03T02:43:38;3.63;;;3.33;;
359;SDS011;168;48.872;9.226;2023-04-03T02:46:06;3.73;;;3.43;;
359;SDS011;168;48.872;9.226;2023-04-03T02:48:34;3.10;;;2.83;;
359;SDS011;168;48.872;9.226;2023-04-03T02:51:01;3.83;;;3.43;;
359;SDS011;168;48.872;9.226;2023-04-03T02:53:29;3.80;;;3.60;;
359;SDS011;168;48.872;9.226;2023-04-03T02:55:57;3.77;;;3.47;;
359;SDS011;168;48.872;9.226;2023-04-03T02:58:25;4.17;;;3.77;;
359;SDS011;168;48.872;9.226;2023-04-03T03:00:53;3.97;;;3.60;;
359;SDS011;168;48.872;9.226;2023-04-03T03:03:20;3.67;;;3.47;;
359;SDS011;168;48.872;9.226;2023-04-03T03:05:48;3.70;;;3.40;;
359;SDS011;168;48.872;9.226;2023-04-03T03:08:15;4.10;;;3.80;;
359;SDS011;168;48.872;9.226;2023-04-03T03:10:45;3.83;;;3.60;;
359;SDS011;168;48.872;9.226;2023-04-03T03:13:13;3.43;;;3.23;;
359;SDS011;168;48.872;9.226;2023-04-03T03:15:42;3.83;;;3.53;;
359;SDS011;168;48.872;9.226;2023-04-03T03:18:10;6.10;;;3.70;;
359;SDS011;168;48.872;9.226;2023-04-03T03:20:37;3.63;;;3.33;;
359;SDS011;168;48.872;9.226;2023-04-03T03:23:05;4.00;;;3.50;;
359;SDS011;168;48.872;9.226;2023-04-03T03:25:33;4.10;;;3.53;;
359;SDS011;168;48.872;9.226;2023-04-03T03:28:04;3.40;;;3.20;;
359;SDS011;168;48.872;9.226;2023-04-03T03:30:32;4.27;;;3.87;;
359;SDS011;168;48.872;9.226;2023-04-03T03:33:01;3.80;;;3.50;;
359;SDS011;168;48.872;9.226;2023-04-03T03:35:29;4.17;;;3.87;;
359;SDS011;168;48.872;9.226;2023-04-03T03:37:56;3.70;;;3.40;;
359;SDS011;168;48.872;9.226;2023-04-03T03:40:24;3.37;;;3.17;;
359;SDS011;168;48.872;9.226;2023-04-03T03:42:51;3.83;;;3.40;;
359;SDS011;168;48.872;9.226;2023-04-03T03:45:19;3.80;;;3.27;;
359;SDS011;168;48.872;9.226;2023-04-03T03:47:47;3.60;;;3.40;;
359;SDS011;168;48.872;9.226;2023-04-03T03:50:16;4.63;;;3.23;;
359;SDS011;168;48.872;9.226;2023-04-03T03:52:44;3.73;;;3.43;;
359;SDS011;168;48.872;9.226;2023-04-03T03:55:12;6.30;;;3.40;;
359;SDS011;168;48.872;9.226;2023-04-03T03:57:39;3.80;;;3.50;;
359;SDS011;168;48.872;9.226;2023-04-03T04:00:07;4.20;;;3.60;;
359;SDS011;168;48.872;9.226;2023-04-03T04:02:35;4.40;;;4.00;;
359;SDS011;168;48.872;9.226;2023-04-03T04:05:03;3.67;;;3.37;;
359;SDS011;168;48.872;9.226;2023-04-03T04:07:33;3.80;;;3.50;;
359;SDS011;168;48.872;9.226;2023-04-03T04:10:00;4.27;;;3.87;;
359;SDS011;168;48.872;9.226;2023-04-03T04:12:27;3.90;;;3.60;;
359;SDS011;168;48.872;9.226;2023-04-03T04:14:55;3.80;;;3.50;;
359;SDS011;168;48.872;9.226;2023-04-03T04:17:22;4.37;;;4.07;;
359;SDS011;168;48.872;9.226;2023-04-03T04:19:50;5.27;;;4.10;;
359;SDS011;168;48.872;9.226;2023-04-03T04:22:17;3.60;;;3.40;;
359;SDS011;168;48.872;9.226;2023-04-03T04:24:46;4.57;;;3.90;;
359;SDS011;168;48.872;9.226;2023-04-03T04:27:14;3.80;;;3.60;;
359;SDS011;168;48.872;9.226;2023-04-03T04:29:42;3.50;;;3.20;;
359;SDS011;168;48.872;9.226;2023-04-03T04:32:09;3.13;;;2.93;;
359;SDS011;168;48.872;9.226;2023-04-03T04:34:37;3.20;;;3.00;;
359;SDS011;168;48.872;9.226;2023-04-03T04:37:04;3.20;;;3.00;;
359;SDS011;168;48.872;9.226;2023-04-03T04:39:32;3.33;;;3.13;;
359;SDS011;168;48.872;9.226;2023-04-03T04:42:01;3.70;;;3.40;;
359;SDS011;168;48.872;9.226;2023-04-03T04:44:29;3.57;;;3.27;;
359;SDS011;168;48.872;9.226;2023-04-03T04:46:56;4.17;;;3.87;;
359;SDS011;168;48.872;9.226;2023-04-03T04:49:24;5.90;;;4.17;;
359;SDS011;168;48.872;9.226;2023-04-03T04:51:51;5.43;;;3.80;;
359;SDS011;168;48.872;9.226;2023-04-03T04:54:19;4.03;;;3.60;;
359;SDS011;168;48.872;9.226;2023-04-03T04:56:46;4.20;;;3.80;;
359;SDS011;168;48.872;9.226;2023-04-03T04:59:16;4.20;;;3.80;;
359;SDS011;168;48.872;9.226;2023-04-03T05:01:43;3.50;;;3.20;;
359;SDS011;168;48.872;9.226;2023-04-03T05:04:10;4.13;;;3.70;;
359;SDS011;168;48.872;9.226;2023-04-03T05:06:39;3.93;;;3.63;;
359;SDS011;168;48.872;9.226;2023-04-03T05:09:06;3.43;;;3.20;;
359;SDS011;168;48.872;9.226;2023-04-03T05:11:35;3.60;;;3.37;;
359;SDS011;168;48.872;9.226;2023-04-03T05:14:03;3.80;;;3.53;;
359;SDS011;168;48.872;9.226;2023-04-03T05:16:33;3.90;;;3.60;;
359;SDS011;168;48.872;9.226;2023-04-03T05:19:01;4.13;;;3.40;;
359;SDS011;168;48.872;9.226;2023-04-03T05:21:29;3.67;;;3.37;;
359;SDS011;168;48.872;9.226;2023-04-03T05:23:57;3.87;;;3.30;;
359;SDS011;168;48.872;9.226;2023-04-03T05:26:28;3.70;;;3.50;;
359;SDS011;168;48.872;9.226;2023-04-03T05:28:55;4.43;;;3.47;;
359;SDS011;168;48.872;9.226;2023-04-03T05:31:22;4.00;;;3.63;;
359;SDS011;168;48.872;9.226;2023-04-03T05:33:51;4.23;;;3.83;;
359;SDS011;168;48.872;9.226;2023-04-03T05:36:19;3.30;;;3.10;;
359;SDS011;168;48.872;9.226;2023-04-03T05:38:46;3.80;;;3.50;;
359;SDS011;168;48.872;9.226;2023-04-03T05:41:14;3.63;;;3.30;;
359;SDS011;168;48.872;9.226;2023-04-03T05:43:42;4.83;;;3.60;;
359;SDS011;168;48.872;9.226;2023-04-03T05:46:10;3.27;;;3.07;;
359;SDS011;168;48.872;9.226;2023-04-03T05:48:41;4.00;;;3.70;;
359;SDS011;168;48.872;9.226;2023-04-03T05:53:42;3.90;;;3.50;;
359;SDS011;168;48.872;9.226;2023-04-03T05:56:11;4.03;;;3.53;;
359;SDS011;168;48.872;9.226;2023-04-03T05:58:38;3.70;;;3.40;;
359;SDS011;168;48.872;9.226;2023-04-03T06:01:06;4.13;;;3.40;;
359;SDS011;168;48.872;9.226;2023-04-03T06:03:34;3.30;;;3.00;;
359;SDS011;168;48.872;9.226;2023-04-03T06:06:02;3.20;;;3.00;;
359;SDS011;168;48.872;9.226;2023-04-03T06:08:32;3.67;;;3.37;;
359;SDS011;168;48.872;9.226;2023-04-03T06:11:00;3.83;;;3.53;;
359;SDS011;168;48.872;9.226;2023-04-03T06:13:28;3.50;;;3.20;;
359;SDS011;168;48.872;9.226;2023-04-03T06:15:56;4.10;;;3.70;;
359;SDS011;168;48.872;9.226;2023-04-03T06:18:24;3.70;;;3.40;;
359;SDS011;168;48.872;9.226;2023-04-03T06:20:51;4.00;;;3.47;;
359;SDS011;168;48.872;9.226;2023-04-03T06:23:19;4.80;;;3.50;;
359;SDS011;168;48.872;9.226;2023-04-03T06:25:47;3.00;;;2.80;;
359;SDS011;168;48.872;9.226;2023-04-03T06:28:15;3.80;;;3.50;;
359;SDS011;168;48.872;9.226;2023-04-03T06:30:44;3.57;;;3.00;;
359;SDS011;168;48.872;9.226;2023-04-03T06:33:12;3.33;;;3.03;;
359;SDS011;168;48.872;9.226;2023-04-03T06:35:40;3.80;;;3.50;;
359;SDS011;168;48.872;9.226;2023-04-03T06:38:07;3.73;;;3.43;;
359;SDS011;168;48.872;9.226;2023-04-03T06:40:35;3.93;;;3.50;;
359;SDS011;168;48.872;9.226;2023-04-03T06:43:05;4.30;;;3.90;;
359;SDS011;168;48.872;9.226;2023-04-03T06:45:32;5.13;;;3.97;;
359;SDS011;168;48.872;9.226;2023-04-03T06:48:00;5.90;;;4.60;;
359;SDS011;168;48.872;9.226;2023-04-03T06:50:27;4.40;;;3.53;;
359;SDS011;168;48.872;9.226;2023-04-03T06:52:54;3.87;;;3.60;;
359;SDS011;168;48.872;9.226;2023-04-03T06:55:22;4.97;;;3.77;;
359;SDS011;168;48.872;9.226;2023-04-03T06:57:49;4.00;;;3.60;;
359;SDS011;168;48.872;9.226;2023-04-03T07:00:19;4.13;;;3.73;;
359;SDS011;168;48.872;9.226;2023-04-03T07:02:47;3.97;;;3.67;;
359;SDS011;168;48.872;9.226;2023-04-03T07:05:14;3.77;;;3.40;;
359;SDS011;168;48.872;9.226;2023-04-03T07:07:42;4.13;;;3.73;;
359;SDS011;168;48.872;9.226;2023-04-03T07:10:10;5.03;;;3.97;;
359;SDS011;168;48.872;9.226;2023-04-03T07:12:38;4.43;;;3.80;;
359;SDS011;168;48.872;9.226;2023-04-03T07:15:06;3.67;;;3.37;;
359;SDS011;168;48.872;9.226;2023-04-03T07:17:35;3.33;;;3.10;;
359;SDS011;168;48.872;9.226;2023-04-03T07:20:03;6.43;;;3.70;;
359;SDS011;168;48.872;9.226;2023-04-03T07:22:33;4.23;;;3.83;;
359;SDS011;168;48.872;9.226;2023-04-03T07:25:00;3.90;;;3.60;;
359;SDS011;168;48.872;9.226;2023-04-03T07:27:28;4.00;;;3.43;;
359;SDS011;168;48.872;9.226;2023-04-03T07:29:56;5.10;;;3.50;;
359;SDS011;168;48.872;9.226;2023-04-03T07:32:23;5.23;;;4.00;;
359;SDS011;168;48.872;9.226;2023-04-03T07:34:52;3.63;;;3.30;;
359;SDS011;168;48.872;9.226;2023-04-03T07:37:20;4.10;;;3.80;;
359;SDS011;168;48.872;9.226;2023-04-03T07:39:48;4.13;;;3.73;;
359;SDS011;168;48.872;9.226;2023-04-03T07:42:15;3.93;;;3.63;;
359;SDS011;168;48.872;9.226;2023-04-03T07:44:45;3.90;;;3.60;;
359;SDS011;168;48.872;9.226;2023-04-03T07:47:12;4.40;;;3.80;;
359;SDS011;168;48.872;9.226;2023-04-03T07:49:42;4.43;;;4.03;;
359;SDS011;168;48.872;9.226;2023-04-03T07:52:10;3.97;;;3.67;;
359;SDS011;168;48.872;9.226;2023-04-03T07:54:38;5.43;;;4.10;;
359;SDS011;168;48.872;9.226;2023-04-03T07:57:06;5.20;;;3.57;;
359;SDS011;168;48.872;9.226;2023-04-03T07:59:33;5.40;;;4.80;;
359;SDS011;168;48.872;9.226;2023-04-03T08:02:01;5.20;;;4.10;;
359;SDS011;168;48.872;9.226;2023-04-03T08:04:30;4.13;;;3.77;;
359;SDS011;168;48.872;9.226;2023-04-03T08:06:58;4.40;;;4.07;;
359;SDS011;168;48.872;9.226;2023-04-03T08:09:27;4.60;;;4.03;;
359;SDS011;168;48.872;9.226;2023-04-03T08:11:54;3.80;;;3.50;;
359;SDS011;168;48.872;9.226;2023-04-03T08:14:22;3.50;;;3.20;;
359;SDS011;168;48.872;9.226;2023-04-03T08:16:50;4.20;;;3.80;;
359;SDS011;168;48.872;9.226;2023-04-03T08:19:17;3.93;;;3.60;;
359;SDS011;168;48.872;9.226;2023-04-03T08:21:45;4.50;;;4.20;;
359;SDS011;168;48.872;9.226;2023-04-03T08:24:12;4.77;;;4.20;;
359;SDS011;168;48.872;9.226;2023-04-03T08:26:41;3.63;;;3.33;;
359;SDS011;168;48.872;9.226;2023-04-03T08:29:09;3.97;;;3.30;;
359;SDS011;168;48.872;9.226;2023-04-03T08:31:36;4.60;;;3.37;;
359;SDS011;168;48.872;9.226;2023-04-03T08:34:04;4.37;;;3.97;;
359;SDS011;168;48.872;9.226;2023-04-03T08:36:32;4.27;;;3.87;;
359;SDS011;168;48.872;9.226;2023-04-03T08:38:59;4.70;;;3.97;;
359;SDS011;168;48.872;9.226;2023-04-03T08:41:29;4.30;;;3.90;;
359;SDS011;168;48.872;9.226;2023-04-03T08:44:04;4.63;;;3.60;;
359;SDS011;168;48.872;9.226;2023-04-03T08:46:45;4.60;;;3.73;;
359;SDS011;168;48.872;9.226;2023-04-03T08:49:23;4.10;;;3.80;;
359;SDS011;168;48.872;9.226;2023-04-03T08:51:54;3.63;;;3.30;;
359;SDS011;168;48.872;9.226;2023-04-03T08:54:26;3.60;;;3.30;;
359;SDS011;168;48.872;9.226;2023-04-03T08:56:56;3.80;;;3.60;;
359;SDS011;168;48.872;9.226;2023-04-03T08:59:29;3.63;;;3.33;;
359;SDS011;168;48.872;9.226;2023-04-03T09:02:01;4.00;;;3.60;;
359;SDS011;168;48.872;9.226;2023-04-03T09:04:32;4.03;;;3.30;;
359;SDS011;168;48.872;9.226;2023-04-03T09:07:02;4.03;;;3.30;;
359;SDS011;168;48.872;9.226;2023-04-03T09:09:36;4.53;;;3.87;;
359;SDS011;168;48.872;9.226;2023-04-03T09:12:11;5.27;;;3.80;;
359;SDS011;168;48.872;9.226;2023-04-03T09:14:46;4.17;;;3.80;;
359;SDS011;168;48.872;9.226;2023-04-03T09:17:21;4.37;;;3.57;;
359;SDS011;168;48.872;9.226;2023-04-03T09:20:00;3.63;;;3.33;;
359;SDS011;168;48.872;9.226;2023-04-03T09:22:41;4.07;;;3.60;;
359;SDS011;168;48.872;9.226;2023-04-03T09:25:10;4.70;;;3.87;;
359;SDS011;168;48.872;9.226;2023-04-03T09:27:41;3.50;;;3.20;;
359;SDS011;168;48.872;9.226;2023-04-03T09:30:14;3.80;;;3.33;;
359;SDS011;168;48.872;9.226;2023-04-03T09:32:43;3.10;;;2.90;;
359;SDS011;168;48.872;9.226;2023-04-03T09:35:20;4.10;;;3.40;;
359;SDS011;168;48.872;9.226;2023-04-03T09:37:50;3.50;;;3.20;;
359;SDS011;168;48.872;9.226;2023-04-03T09:40:29;4.10;;;3.37;;
359;SDS011;168;48.872;9.226;2023-04-03T09:43:00;3.90;;;3.53;;
359;SDS011;168;48.872;9.226;2023-04-03T09:45:31;3.40;;;3.20;;
359;SDS011;168;48.872;9.226;2023-04-03T09:48:06;3.07;;;2.87;;
359;SDS011;168;48.872;9.226;2023-04-03T09:50:35;4.27;;;3.17;;
359;SDS011;168;48.872;9.226;2023-04-03T09:53:05;3.37;;;3.00;;
359;SDS011;168;48.872;9.226;2023-04-03T09:55:41;2.93;;;2.73;;
359;SDS011;168;48.872;9.226;2023-04-03T09:58:23;3.67;;;3.10;;
359;SDS011;168;48.872;9.226;2023-04-03T10:00:56;3.07;;;2.87;;
359;SDS011;168;48.872;9.226;2023-04-03T10:03:27;5.57;;;5.07;;
359;SDS011;168;48.872;9.226;2023-04-03T10:05:57;3.27;;;2.87;;
359;SDS011;168;48.872;9.226;2023-04-03T10:08:27;3.80;;;3.47;;
359;SDS011;168;48.872;9.226;2023-04-03T10:11:10;3.30;;;3.00;;
359;SDS011;168;48.872;9.226;2023-04-03T10:13:49;3.40;;;2.80;;
359;SDS011;168;48.872;9.226;2023-04-03T10:16:20;4.87;;;3.77;;
359;SDS011;168;48.872;9.226;2023-04-03T10:21:40;3.10;;;2.70;;
359;SDS011;168;48.872;9.226;2023-04-03T10:24:14;3.83;;;3.10;;
359;SDS011;168;48.872;9.226;2023-04-03T10:26:49;2.60;;;2.40;;
359;SDS011;168;48.872;9.226;2023-04-03T10:29:26;3.20;;;2.37;;
359;SDS011;168;48.872;9.226;2023-04-03T10:32:06;3.10;;;2.80;;
359;SDS011;168;48.872;9.226;2023-04-03T10:35:01;2.70;;;2.50;;
359;SDS011;168;48.872;9.226;2023-04-03T10:37:44;2.57;;;2.37;;
359;SDS011;168;48.872;9.226;2023-04-03T10:40:24;2.73;;;2.50;;
359;SDS011;168;48.872;9.226;2023-04-03T10:43:02;3.10;;;2.90;;
359;SDS011;168;48.872;9.226;2023-04-03T10:45:43;5.00;;;2.67;;
359;SDS011;168;48.872;9.226;2023-04-03T10:48:23;3.77;;;2.60;;
359;SDS011;168;48.872;9.226;2023-04-03T10:51:00;3.03;;;2.83;;
359;SDS011;168;48.872;9.226;2023-04-03T10:53:36;2.60;;;2.20;;
359;SDS011;168;48.872;9.226;2023-04-03T10:56:12;3.80;;;2.67;;
359;SDS011;168;48.872;9.226;2023-04-03T10:58:43;2.50;;;2.33;;
359;SDS011;168;48.872;9.226;2023-04-03T11:01:16;2.70;;;2.50;;
359;SDS011;168;48.872;9.226;2023-04-03T11:03:51;4.13;;;2.50;;
359;SDS011;168;48.872;9.226;2023-04-03T11:06:21;3.80;;;2.63;;
359;SDS011;168;48.872;9.226;2023-04-03T11:08:53;3.07;;;2.77;;
359;SDS011;168;48.872;9.226;2023-04-03T11:11:30;2.73;;;2.40;;
359;SDS011;168;48.872;9.226;2023-04-03T11:14:01;2.50;;;2.30;;
359;SDS011;168;48.872;9.226;2023-04-03T11:16:33;2.50;;;2.30;;
359;SDS011;168;48.872;9.226;2023-04-03T11:19:08;2.93;;;2.63;;
359;SDS011;168;48.872;9.226;2023-04-03T11:21:48;2.50;;;2.30;;
359;SDS011;168;48.872;9.226;2023-04-03T11:24:22;2.67;;;2.47;;
359;SDS011;168;48.872;9.226;2023-04-03T11:26:52;3.00;;;2.70;;
359;SDS011;168;48.872;9.226;2023-04-03T11:29:31;2.83;;;2.63;;
359;SDS011;168;48.872;9.226;2023-04-03T11:32:06;3.60;;;3.30;;
359;SDS011;168;48.872;9.226;2023-04-03T11:34:45;2.73;;;2.53;;
359;SDS011;168;48.872;9.226;2023-04-03T11:37:17;4.93;;;2.53;;
359;SDS011;168;48.872;9.226;2023-04-03T11:39:53;4.10;;;3.17;;
359;SDS011;168;48.872;9.226;2023-04-03T11:42:29;2.73;;;2.60;;
359;SDS011;168;48.872;9.226;2023-04-03T11:45:16;2.47;;;2.27;;
359;SDS011;168;48.872;9.226;2023-04-03T11:47:55;3.63;;;2.13;;
359;SDS011;168;48.872;9.226;2023-04-03T11:50:37;2.43;;;2.27;;
359;SDS011;168;48.872;9.226;2023-04-03T11:53:27;2.50;;;2.30;;
359;SDS011;168;48.872;9.226;2023-04-03T11:56:04;2.67;;;2.47;;
359;SDS011;168;48.872;9.226;2023-04-03T11:59:15;2.60;;;2.40;;
359;SDS011;168;48.872;9.226;2023-04-03T12:01:52;3.10;;;2.87;;
359;SDS011;168;48.872;9.226;2023-04-03T12:04:21;3.53;;;2.43;;
359;SDS011;168;48.872;9.226;2023-04-03T12:07:00;2.50;;;2.30;;
359;SDS011;168;48.872;9.226;2023-04-03T12:12:56;2.33;;;2.23;;
359;SDS011;168;48.872;9.226;2023-04-03T12:21:24;2.50;;;2.30;;
359;SDS011;168;48.872;9.226;2023-04-03T12:24:33;2.50;;;2.27;;
359;SDS011;168;48.872;9.226;2023-04-03T12:27:03;2.13;;;2.00;;
359;SDS011;168;48.872;9.226;2023-04-03T12:29:37;2.90;;;2.60;;
359;SDS011;168;48.872;9.226;2023-04-03T12:32:13;2.53;;;2.37;;
359;SDS011;168;48.872;9.226;2023-04-03T12:35:03;2.40;;;2.20;;
359;SDS011;168;48.872;9.226;2023-04-03T12:38:11;3.77;;;2.50;;
359;SDS011;168;48.872;9.226;2023-04-03T12:40:49;2.60;;;2.40;;
359;SDS011;168;48.872;9.226;2023-04-03T12:43:27;3.40;;;2.93;;
359;SDS011;168;48.872;9.226;2023-04-03T12:46:03;2.50;;;2.40;;
359;SDS011;168;48.872;9.226;2023-04-03T12:48:37;2.77;;;2.53;;
359;SDS011;168;48.872;9.226;2023-04-03T12:51:26;3.27;;;2.50;;
359;SDS011;168;48.872;9.226;2023-04-03T12:54:01;3.27;;;3.00;;
359;SDS011;168;48.872;9.226;2023-04-03T12:56:40;3.90;;;2.40;;
359;SDS011;168;48.872;9.226;2023-04-03T12:59:14;2.47;;;2.27;;
359;SDS011;168;48.872;9.226;2023-04-03T13:01:43;3.20;;;2.93;;
359;SDS011;168;48.872;9.226;2023-04-03T13:04:20;3.70;;;3.40;;
359;SDS011;168;48.872;9.226;2023-04-03T13:06:49;3.80;;;2.87;;
359;SDS011;168;48.872;9.226;2023-04-03T13:09:19;2.57;;;2.43;;
359;SDS011;168;48.872;9.226;2023-04-03T13:11:50;3.67;;;3.37;;
359;SDS011;168;48.872;9.226;2023-04-03T13:14:23;4.33;;;2.70;;
359;SDS011;168;48.872;9.226;2023-04-03T13:16:52;4.17;;;2.60;;
359;SDS011;168;48.872;9.226;2023-04-03T13:19:22;5.40;;;2.60;;
359;SDS011;168;48.872;9.226;2023-04-03T13:21:51;2.97;;;2.73;;
359;SDS011;168;48.872;9.226;2023-04-03T13:24:25;2.60;;;2.40;;
359;SDS011;168;48.872;9.226;2023-04-03T13:26:57;5.50;;;2.90;;
359;SDS011;168;48.872;9.226;2023-04-03T13:29:27;2.50;;;2.30;;
359;SDS011;168;48.872;9.226;2023-04-03T13:31:56;4.57;;;3.13;;
359;SDS011;168;48.872;9.226;2023-04-03T13:34:24;2.57;;;2.37;;
359;SDS011;168;48.872;9.226;2023-04-03T13:36:55;3.37;;;3.17;;
359;SDS011;168;48.872;9.226;2023-04-03T13:39:24;3.00;;;2.63;;
359;SDS011;168;48.872;9.226;2023-04-03T13:41:54;2.83;;;2.60;;
359;SDS011;168;48.872;9.226;2023-04-03T13:44:29;2.70;;;2.33;;
359;SDS011;168;48.872;9.226;2023-04-03T13:46:59;3.80;;;3.03;;
359;SDS011;168;48.872;9.226;2023-04-03T13:49:31;2.80;;;2.53;;
359;SDS011;168;48.872;9.226;2023-04-03T13:52:01;2.40;;;2.27;;
359;SDS011;168;48.872;9.226;2023-04-03T13:54:51;2.40;;;2.20;;
359;SDS011;168;48.872;9.226;2023-04-03T13:57:27;2.47;;;2.27;;
359;SDS011;168;48.872;9.226;2023-04-03T13:59:55;2.60;;;2.13;;
359;SDS011;168;48.872;9.226;2023-04-03T14:02:29;2.53;;;2.30;;
359;SDS011;168;48.872;9.226;2023-04-03T14:04:59;3.10;;;2.90;;
359;SDS011;168;48.872;9.226;2023-04-03T14:07:29;2.90;;;2.70;;
359;SDS011;168;48.872;9.226;2023-04-03T14:09:58;3.17;;;2.50;;
359;SDS011;168;48.872;9.226;2023-04-03T14:12:27;3.10;;;2.80;;
359;SDS011;168;48.872;9.226;2023-04-03T14:14:59;3.10;;;2.50;;
359;SDS011;168;48.872;9.226;2023-04-03T14:17:28;2.70;;;2.50;;
359;SDS011;168;48.872;9.226;2023-04-03T14:19:57;2.30;;;2.20;;
359;SDS011;168;48.872;9.226;2023-04-03T14:22:27;2.33;;;2.17;;
359;SDS011;168;48.872;9.226;2023-04-03T14:24:57;3.20;;;2.57;;
359;SDS011;168;48.872;9.226;2023-04-03T14:27:27;2.50;;;2.30;;
359;SDS011;168;48.872;9.226;2023-04-03T14:29:57;2.90;;;2.47;;
359;SDS011;168;48.872;9.226;2023-04-03T14:32:28;2.53;;;2.33;;
359;SDS011;168;48.872;9.226;2023-04-03T14:34:56;3.03;;;2.57;;
359;SDS011;168;48.872;9.226;2023-04-03T14:37:25;3.20;;;2.90;;
359;SDS011;168;48.872;9.226;2023-04-03T14:39:55;3.97;;;2.60;;
359;SDS011;168;48.872;9.226;2023-04-03T14:42:27;2.90;;;2.50;;
359;SDS011;168;48.872;9.226;2023-04-03T14:44:57;2.73;;;2.47;;
359;SDS011;168;48.872;9.226;2023-04-03T14:47:26;2.50;;;2.30;;
359;SDS011;168;48.872;9.226;2023-04-03T14:49:55;2.87;;;2.60;;
359;SDS011;168;48.872;9.226;2023-04-03T14:52:23;3.00;;;2.70;;
359;SDS011;168;48.872;9.226;2023-04-03T14:54:52;2.37;;;2.17;;
359;SDS011;168;48.872;9.226;2023-04-03T14:57:21;2.50;;;2.30;;
359;SDS011;168;48.872;9.226;2023-04-03T14:59:55;2.63;;;2.37;;
359;SDS011;168;48.872;9.226;2023-04-03T15:02:27;3.83;;;2.67;;
359;SDS011;168;48.872;9.226;2023-04-03T15:04:56;2.93;;;2.63;;
359;SDS011;168;48.872;9.226;2023-04-03T15:07:25;2.37;;;2.27;;
359;SDS011;168;48.872;9.226;2023-04-03T15:09:55;2.53;;;2.33;;
359;SDS011;168;48.872;9.226;2023-04-03T15:12:22;2.27;;;2.13;;
359;SDS011;168;48.872;9.226;2023-04-03T15:14:52;2.33;;;2.13;;
359;SDS011;168;48.872;9.226;2023-04-03T15:17:21;2.37;;;2.20;;
359;SDS011;168;48.872;9.226;2023-04-03T15:19:49;2.90;;;2.53;;
359;SDS011;168;48.872;9.226;2023-04-03T15:22:17;2.70;;;2.50;;
359;SDS011;168;48.872;9.226;2023-04-03T15:24:46;2.40;;;2.23;;
359;SDS011;168;48.872;9.226;2023-04-03T15:27:14;2.90;;;2.40;;
359;SDS011;168;48.872;9.226;2023-04-03T15:29:43;2.40;;;2.20;;
359;SDS011;168;48.872;9.226;2023-04-03T15:32:18;4.10;;;2.80;;
359;SDS011;168;48.872;9.226;2023-04-03T15:34:47;2.83;;;2.60;;
359;SDS011;168;48.872;9.226;2023-04-03T15:37:14;4.50;;;2.60;;
359;SDS011;168;48.872;9.226;2023-04-03T15:39:46;1.90;;;1.80;;
359;SDS011;168;48.872;9.226;2023-04-03T15:42:13;2.53;;;2.33;;
359;SDS011;168;48.872;9.226;2023-04-03T15:44:42;2.60;;;2.23;;
359;SDS011;168;48.872;9.226;2023-04-03T15:47:10;2.47;;;2.27;;
359;SDS011;168;48.872;9.226;2023-04-03T15:49:37;2.30;;;2.10;;
359;SDS011;168;48.872;9.226;2023-04-03T15:52:07;3.20;;;2.50;;
359;SDS011;168;48.872;9.226;2023-04-03T15:54:34;2.73;;;2.53;;
359;SDS011;168;48.872;9.226;2023-04-03T15:57:02;5.10;;;2.50;;
359;SDS011;168;48.872;9.226;2023-04-03T15:59:30;2.20;;;2.03;;
359;SDS011;168;48.872;9.226;2023-04-03T16:01:58;3.37;;;2.30;;
359;SDS011;168;48.872;9.226;2023-04-03T16:04:26;3.03;;;2.10;;
359;SDS011;168;48.872;9.226;2023-04-03T16:06:54;2.63;;;2.13;;
359;SDS011;168;48.872;9.226;2023-04-03T16:09:23;3.27;;;2.70;;
359;SDS011;168;48.872;9.226;2023-04-03T16:11:56;2.67;;;2.47;;
359;SDS011;168;48.872;9.226;2023-04-03T16:14:23;2.93;;;2.50;;
359;SDS011;168;48.872;9.226;2023-04-03T16:16:53;3.43;;;2.80;;
359;SDS011;168;48.872;9.226;2023-04-03T16:19:23;2.10;;;2.00;;
359;SDS011;168;48.872;9.226;2023-04-03T16:21:51;3.67;;;2.23;;